Woensdrecht, Nederland

3:23 PM CEST op 25 oktober 2014 (GMT +0200)
INORTHBR2 | Change Station
CLOSE
Current Station
Persoonlijk weerstation
Location: Bergen Op Zoom, NORTH BRABANT
Geometrische hoogte: 10 ft
Nabije weerstations

Hoogte 10 ft 51.48 °N, 4.28 °E | Updated 8 minutes ago

Overcast
Geheel bewolkt
60.4 °F
Voelt als 60.4 °F
N
6.0
Wind Variabel Wind van west
Gusts 13.0 mijl/u

Vandaag
Hoog -- | Laag -- °F
--% Kans op neerslag
Gisteren
Hoog -- | Laag -- °F
Precip. -- inches
8:23 AM 6:29 PM
Wassende halvemaan, 3% visible
Druk 30.06 inches
Zicht 5.0 mijlen
Wolken Gering 1000 ft
Licht bewolkt 1600 ft
Geheel bewolkt 2900 ft
Dauwpunt 49 °F
Vochtigheid 65%
Neerslag 0.00 inches
Dikte sneeuw Niet beschikbaar.
UV 0 van de 12
Pollen Niet beschikbaar.
Luchtkwaliteit Niet beschikbaar.
Flu Activity Niet beschikbaar.
SPECI EHGR 251314Z AUTO 22005KT 8000 BR FEW010 SCT016 OVC029 15/13 Q1018 WHT

More Conditions Fewer Conditions

Druk 30.06 inches
Zicht 5.0 mijlen
Wolken Gering 1000 ft
Licht bewolkt 1600 ft
Geheel bewolkt 2900 ft
Dauwpunt 49 °F
Vochtigheid 65%
Neerslag 0.00 inches
Dikte sneeuw Niet beschikbaar.
UV 0 van de 12
Pollen Niet beschikbaar.
Luchtkwaliteit Niet beschikbaar.
Flu Activity Niet beschikbaar.
SPECI EHGR 251314Z AUTO 22005KT 8000 BR FEW010 SCT016 OVC029 15/13 Q1018 WHT

More Conditions Fewer Conditions

10-Day Weather Forecast

Almanac

Astronomie

Oct. 25, 2014 Opkomst Ondergang
Werkelijke tijd 8:23 AM CEST 6:29 PM CEST
Burgerlijke schemering 7:49 AM CEST 7:03 PM CEST
Nautische schemering 7:10 AM CEST 7:42 PM CEST
Astronomische schemering 6:31 AM CEST 8:21 PM CEST
Maan 9:54 AM CEST 7:31 PM CEST
Golflengte van het zichtbare licht 11h 14m
Daglengte
10h 05m
Tomorrow will be 3m 42s shorter.
Wassende halvemaan, 3% of the Moon is Illuminated
Vandaag
Wassende halvemaan
oktober 30
Eerste kwartier
nov 6
Volle maan
nov 14
Laatste kwartier
nov 22
Nieuw

Extremen gisteren

Country Highs Country Lows

Community

WunderPhotos

Upload Photos

1,764,829 foto’s ge-upload!

Nearby

Luchtkwaliteit

Not available.

Dikte sneeuw

Not available.

Aardbevingen

Stad Distance Mag. Time & Date
No recent earthquake activity has been reported nearby.
Minimum magnitude displayed is 2.5.

Watertemperatuur langs de kust

Plaats Temperatuur
Geen meldingen van stations

Nabije weerstations